Time;durP1;ratioP1;P1;durP2;ratioP2;P2;SDS_P1;SDS_P2;PMS_P1;PMS_P2;Temp;Humidity;BMP_temperature;BMP_pressure;BME280_temperature;BME280_humidity;BME280_pressure;Samples;Min_cycle;Max_cycle;Signal;HPM_P1;HPM_P2
2022/08/30 00:01:27;;;;;;;18.40;6.70;;;;;;;16.61;56.92;99286.84;105957;1277;97859;-69
2022/08/30 00:03:59;;;;;;;17.50;6.30;;;;;;;16.58;56.85;99291.70;105980;1278;107975;-68
2022/08/30 00:06:31;;;;;;;14.80;5.90;;;;;;;16.56;56.99;99289.75;106095;1277;97825;-69
2022/08/30 00:08:59;;;;;;;17.90;6.10;;;;;;;16.55;57.02;99292.02;106079;1277;97918;-68
2022/08/30 00:11:31;;;;;;;16.10;6.20;;;;;;;16.54;57.06;99289.80;105995;1277;112084;-69
2022/08/30 00:14:01;;;;;;;17.70;5.90;;;;;;;16.51;57.29;99292.16;106003;1278;98007;-69
2022/08/30 00:16:35;;;;;;;18.20;7.30;;;;;;;16.50;57.13;99290.90;106000;1277;108405;-69
2022/08/30 00:19:03;;;;;;;21.10;6.30;;;;;;;16.48;57.24;99290.38;106062;1277;97944;-69
2022/08/30 00:21:34;;;;;;;24.60;7.00;;;;;;;16.45;57.32;99293.67;106070;1277;97883;-66
2022/08/30 00:24:04;;;;;;;18.50;6.10;;;;;;;16.42;57.24;99292.89;106080;1276;111976;-71
2022/08/30 00:26:35;;;;;;;21.70;6.60;;;;;;;16.37;57.35;99294.02;106031;1276;95497;-69
2022/08/30 00:29:05;;;;;;;14.30;6.00;;;;;;;16.34;57.40;99294.81;105982;1277;108407;-67
2022/08/30 00:31:33;;;;;;;17.20;5.30;;;;;;;16.30;57.33;99292.34;105976;1276;97951;-67
2022/08/30 00:34:04;;;;;;;17.60;5.70;;;;;;;16.26;57.34;99295.23;106091;1277;97893;-67
2022/08/30 00:36:36;;;;;;;20.50;5.70;;;;;;;16.25;57.32;99294.51;106029;1277;112817;-68
2022/08/30 00:39:07;;;;;;;15.00;5.40;;;;;;;16.24;57.65;99293.31;106004;1276;97950;-68
2022/08/30 00:41:41;;;;;;;16.40;6.10;;;;;;;16.22;57.50;99292.88;105942;1277;108973;-68
2022/08/30 00:44:10;;;;;;;17.50;5.30;;;;;;;16.20;57.57;99292.38;106003;1277;97887;-65
2022/08/30 00:46:41;;;;;;;16.50;5.60;;;;;;;16.18;57.56;99293.80;106102;1277;97973;-68
2022/08/30 00:49:14;;;;;;;16.60;5.90;;;;;;;16.18;57.53;99293.11;106113;1277;112075;-68
2022/08/30 00:51:46;;;;;;;17.10;5.00;;;;;;;16.15;57.69;99294.59;105984;1277;98011;-69
2022/08/30 00:54:18;;;;;;;14.50;5.50;;;;;;;16.14;57.75;99293.14;105981;1276;109248;-69
2022/08/30 00:56:51;;;;;;;14.70;5.60;;;;;;;16.13;57.82;99300.37;106102;1277;96337;-69
2022/08/30 00:59:24;;;;;;;17.80;6.40;;;;;;;16.12;57.78;99296.17;106043;1277;98058;-66
2022/08/30 01:01:52;;;;;;;17.10;5.60;;;;;;;16.09;57.89;99300.39;105951;1276;111183;-70
2022/08/30 01:04:30;;;;;;;15.30;5.20;;;;;;;16.06;57.83;99303.09;105991;1277;97905;-69
2022/08/30 01:07:02;;;;;;;14.90;5.10;;;;;;;16.04;57.84;99305.61;106081;1277;107743;-67
2022/08/30 01:09:34;;;;;;;16.10;5.80;;;;;;;16.04;57.88;99306.54;106049;1276;97983;-69
2022/08/30 01:12:05;;;;;;;18.60;5.20;;;;;;;16.04;58.01;99302.78;106041;1277;98636;-68
2022/08/30 01:14:37;;;;;;;14.40;5.80;;;;;;;16.00;58.03;99303.33;106037;1277;111005;-67
2022/08/30 01:17:09;;;;;;;19.20;6.40;;;;;;;15.95;57.85;99302.70;105977;1276;97905;-69
2022/08/30 01:19:50;;;;;;;18.60;6.80;;;;;;;15.87;57.90;99306.26;105925;1276;108208;-69
2022/08/30 01:22:35;;;;;;;17.60;7.00;;;;;;;15.80;57.95;99304.23;105850;1277;97866;-68
2022/08/30 01:25:08;;;;;;;19.10;5.90;;;;;;;15.70;57.85;99300.49;106135;1277;97891;-68
2022/08/30 01:28:04;;;;;;;16.00;6.20;;;;;;;15.56;57.80;99304.75;105964;1276;111432;-68
2022/08/30 01:30:37;;;;;;;20.60;6.80;;;;;;;15.37;57.77;99309.65;105973;1277;97897;-66
2022/08/30 01:33:10;;;;;;;18.90;7.20;;;;;;;15.21;58.09;99303.77;106003;1276;107800;-67
2022/08/30 01:35:48;;;;;;;19.00;7.00;;;;;;;15.14;58.21;99304.31;106006;1277;98002;-66
2022/08/30 01:38:22;;;;;;;16.20;6.90;;;;;;;15.07;58.15;99299.06;105936;1276;97916;-68
2022/08/30 01:40:59;;;;;;;19.10;7.40;;;;;;;15.02;58.32;99294.98;105956;1276;111417;-69
2022/08/30 01:43:27;;;;;;;18.60;7.50;;;;;;;15.01;58.50;99294.21;105997;1276;97926;-70
2022/08/30 01:45:55;;;;;;;19.30;7.00;;;;;;;15.00;58.53;99294.27;105950;1276;107116;-69
2022/08/30 01:48:31;;;;;;;17.10;6.90;;;;;;;14.99;58.53;99296.33;105917;1276;97861;-70
2022/08/30 01:51:08;;;;;;;19.60;7.30;;;;;;;14.96;58.57;99294.46;105908;1277;97966;-71
2022/08/30 01:53:41;;;;;;;14.20;6.50;;;;;;;14.90;58.52;99294.67;106102;1276;111416;-71
2022/08/30 01:56:14;;;;;;;21.30;6.40;;;;;;;14.84;58.72;99292.81;106092;1276;97855;-67
2022/08/30 01:58:46;;;;;;;19.80;7.50;;;;;;;14.83;58.77;99291.68;106047;1277;107752;-69
2022/08/30 02:01:21;;;;;;;22.80;6.10;;;;;;;14.81;58.81;99290.61;105947;1277;98449;-68
2022/08/30 02:03:50;;;;;;;13.50;5.20;;;;;;;14.81;58.89;99285.95;106040;1276;97991;-69
2022/08/30 02:06:23;;;;;;;25.40;7.10;;;;;;;14.82;59.03;99285.84;105917;1276;111796;-68
2022/08/30 02:08:51;;;;;;;15.10;5.50;;;;;;;14.84;59.03;99286.56;105880;1278;97900;-68
2022/08/30 02:11:20;;;;;;;14.00;5.10;;;;;;;14.86;59.11;99282.32;105954;1276;108374;-68
2022/08/30 02:13:50;;;;;;;13.80;4.80;;;;;;;14.88;59.09;99282.46;105912;1276;97876;-68
2022/08/30 02:16:24;;;;;;;14.50;5.50;;;;;;;14.89;59.20;99283.62;105978;1276;97944;-67
2022/08/30 02:18:56;;;;;;;13.80;4.90;;;;;;;14.92;59.33;99283.95;105900;1276;114287;-68
2022/08/30 02:21:28;;;;;;;13.60;5.60;;;;;;;14.94;59.34;99284.09;106041;1276;95317;-67
2022/08/30 02:24:00;;;;;;;15.60;5.80;;;;;;;14.95;59.36;99282.94;105957;1276;107801;-68
2022/08/30 02:26:28;;;;;;;15.50;5.20;;;;;;;14.96;59.42;99279.67;105925;1276;97930;-69
2022/08/30 02:28:59;;;;;;;17.30;5.20;;;;;;;14.98;59.42;99283.96;105936;1276;96474;-68
2022/08/30 02:31:27;;;;;;;16.10;6.40;;;;;;;14.98;59.37;99285.38;105914;1276;111962;-67
2022/08/30 02:33:55;;;;;;;19.00;7.50;;;;;;;14.91;58.89;99282.39;106091;1277;98059;-67
2022/08/30 02:36:23;;;;;;;16.80;6.60;;;;;;;14.61;58.67;99282.27;106012;1276;108302;-68
2022/08/30 02:38:53;;;;;;;21.70;7.80;;;;;;;14.26;58.78;99283.26;105965;1277;98000;-67
2022/08/30 02:41:24;;;;;;;19.20;7.30;;;;;;;14.03;58.96;99284.81;105989;1276;98410;-71
2022/08/30 02:43:57;;;;;;;18.30;6.90;;;;;;;13.92;59.40;99281.11;106021;1277;111756;-67
2022/08/30 02:46:29;;;;;;;20.00;7.60;;;;;;;13.90;59.84;99285.52;106016;1276;97930;-67
2022/08/30 02:49:07;;;;;;;18.00;7.20;;;;;;;13.95;60.01;99282.13;106036;1276;107748;-68
2022/08/30 02:52:05;;;;;;;20.10;6.70;;;;;;;14.00;60.07;99276.34;105993;1276;98037;-67
2022/08/30 02:54:34;;;;;;;17.10;6.90;;;;;;;14.04;60.12;99277.30;105980;1276;97887;-68
2022/08/30 02:57:05;;;;;;;18.30;6.80;;;;;;;14.06;60.16;99277.65;105913;1276;111466;-68
2022/08/30 02:59:52;;;;;;;18.40;6.40;;;;;;;14.08;60.20;99277.84;106034;1276;97905;-71
2022/08/30 03:02:29;;;;;;;17.10;6.50;;;;;;;14.08;60.21;99279.58;106021;1276;107769;-69
2022/08/30 03:04:57;;;;;;;14.80;5.70;;;;;;;14.09;60.30;99278.80;106077;1276;98231;-69
2022/08/30 03:07:30;;;;;;;16.00;6.30;;;;;;;14.11;60.38;99279.13;105943;1277;97865;-68
2022/08/30 03:10:05;;;;;;;16.00;5.50;;;;;;;14.13;60.43;99280.23;106016;1276;111440;-68
2022/08/30 03:12:33;;;;;;;17.40;5.40;;;;;;;14.15;60.50;99282.25;106038;1276;98592;-65
2022/08/30 03:15:05;;;;;;;18.80;6.10;;;;;;;14.16;60.50;99285.52;105964;1277;108393;-68
2022/08/30 03:17:35;;;;;;;17.30;5.70;;;;;;;14.17;60.54;99285.09;105972;1276;98322;-68
2022/08/30 03:20:08;;;;;;;16.00;6.30;;;;;;;14.18;60.48;99286.66;106025;1276;97889;-68
2022/08/30 03:22:40;;;;;;;16.60;7.40;;;;;;;14.09;60.01;99285.53;105987;1276;111388;-67
2022/08/30 03:25:22;;;;;;;18.70;7.30;;;;;;;13.88;59.90;99289.59;106083;1276;97993;-70
2022/08/30 03:27:53;;;;;;;19.30;7.40;;;;;;;13.70;60.21;99290.74;106108;1276;107832;-69
2022/08/30 03:30:21;;;;;;;17.10;7.60;;;;;;;13.62;60.58;99295.15;105975;1277;97803;-70
2022/08/30 03:32:53;;;;;;;19.20;6.70;;;;;;;13.62;60.85;99295.69;105965;1276;98565;-68
2022/08/30 03:35:21;;;;;;;16.70;6.50;;;;;;;13.64;60.87;99291.93;105941;1276;112036;-69
2022/08/30 03:37:52;;;;;;;16.40;7.10;;;;;;;13.66;60.97;99291.61;105954;1274;97903;-70
2022/08/30 03:40:27;;;;;;;19.10;7.50;;;;;;;13.67;60.96;99298.51;105902;1277;108598;-70
2022/08/30 03:42:56;;;;;;;16.70;7.40;;;;;;;13.67;61.09;99295.95;105937;1276;95710;-69
2022/08/30 03:45:28;;;;;;;18.70;7.10;;;;;;;13.66;61.04;99292.47;105960;1277;98080;-68
2022/08/30 03:48:04;;;;;;;17.40;7.30;;;;;;;13.66;61.11;99297.48;106036;1276;111643;-69
2022/08/30 03:50:34;;;;;;;19.70;8.10;;;;;;;13.63;60.83;99297.70;106010;1276;97951;-68
2022/08/30 03:53:05;;;;;;;19.20;7.70;;;;;;;13.49;60.43;99294.90;103592;1276;3173401;-68
2022/08/30 03:55:33;;;;;;;18.30;7.10;;;;;;;13.29;60.44;99300.96;105903;1277;98218;-69
2022/08/30 03:58:01;;;;;;;18.50;7.30;;;;;;;13.11;60.61;99300.10;105980;1276;95302;-67
2022/08/30 04:00:29;;;;;;;19.60;8.00;;;;;;;12.97;60.84;99305.27;105984;1276;111363;-69
2022/08/30 04:02:59;;;;;;;18.90;7.70;;;;;;;12.87;61.02;99305.70;106020;1276;97934;-68
2022/08/30 04:05:27;;;;;;;22.70;9.20;;;;;;;12.85;61.38;99306.20;105940;1276;108336;-70
2022/08/30 04:07:56;;;;;;;16.70;7.00;;;;;;;12.87;61.55;99309.77;105944;1276;97939;-70
2022/08/30 04:10:26;;;;;;;19.50;7.30;;;;;;;12.90;61.76;99310.75;105862;1276;97825;-70
2022/08/30 04:13:00;;;;;;;20.50;7.60;;;;;;;12.95;61.71;99307.20;105946;1276;112358;-69
2022/08/30 04:15:28;;;;;;;25.90;8.40;;;;;;;12.98;61.79;99305.02;105987;1276;97505;-69
2022/08/30 04:17:57;;;;;;;19.80;7.50;;;;;;;13.00;61.81;99305.40;105971;1278;108293;-68
2022/08/30 04:20:29;;;;;;;19.10;7.90;;;;;;;13.01;61.85;99311.38;106025;1276;98147;-71
2022/08/30 04:23:01;;;;;;;19.20;7.80;;;;;;;13.03;61.95;99310.70;106124;1276;97870;-71
2022/08/30 04:25:29;;;;;;;25.10;7.80;;;;;;;13.05;61.90;99310.46;105971;1277;111364;-71
2022/08/30 04:27:57;;;;;;;17.00;7.60;;;;;;;13.08;61.82;99310.80;105874;1277;97914;-71
2022/08/30 04:30:25;;;;;;;22.70;8.30;;;;;;;13.08;61.88;99313.11;105901;1277;107795;-71
2022/08/30 04:32:56;;;;;;;18.00;8.10;;;;;;;13.08;62.02;99314.55;105860;1277;97858;-71
2022/08/30 04:35:29;;;;;;;19.80;8.30;;;;;;;13.09;62.12;99316.23;105848;1278;98594;-71
2022/08/30 04:37:57;;;;;;;18.60;7.80;;;;;;;13.11;62.17;99318.21;105857;1277;111191;-70
2022/08/30 04:40:29;;;;;;;18.20;8.00;;;;;;;13.13;62.31;99317.90;105876;1277;96425;-71
2022/08/30 04:43:05;;;;;;;20.70;8.50;;;;;;;13.17;62.32;99319.71;106030;1277;108369;-70
2022/08/30 04:45:33;;;;;;;19.50;8.20;;;;;;;13.21;62.47;99325.30;105991;1277;95291;-67
2022/08/30 04:48:01;;;;;;;21.80;8.40;;;;;;;13.25;62.46;99327.45;105944;1276;97993;-71
2022/08/30 04:50:29;;;;;;;18.40;7.60;;;;;;;13.30;62.76;99323.66;105926;1277;111418;-72
2022/08/30 04:52:59;;;;;;;21.30;7.80;;;;;;;13.36;62.65;99327.48;105969;1277;96514;-72
2022/08/30 04:55:27;;;;;;;20.20;8.20;;;;;;;13.43;62.76;99328.17;105982;1276;107753;-71
2022/08/30 04:57:55;;;;;;;16.80;7.10;;;;;;;13.49;62.90;99333.35;105953;1276;97737;-71
2022/08/30 05:00:23;;;;;;;23.50;6.70;;;;;;;13.57;62.96;99331.33;105982;1276;95342;-71
2022/08/30 05:02:51;;;;;;;15.60;5.90;;;;;;;13.65;63.04;99327.80;105909;1276;111343;-71
2022/08/30 05:08:12;;;;;;;15.70;6.30;;;;;;;13.89;63.25;99333.92;106021;1276;107644;-75
2022/08/30 05:10:46;;;;;;;17.70;6.50;;;;;;;14.01;63.23;99337.39;105979;1275;97867;-73
2022/08/30 05:13:19;;;;;;;19.00;6.90;;;;;;;14.10;63.34;99334.52;105820;1278;97955;-73
2022/08/30 05:15:56;;;;;;;18.90;6.40;;;;;;;14.19;63.29;99335.95;106007;1276;111386;-73
2022/08/30 05:18:27;;;;;;;20.70;7.20;;;;;;;14.26;63.33;99338.34;105841;1277;97971;-69
2022/08/30 05:21:15;;;;;;;22.30;7.30;;;;;;;14.34;63.39;99338.98;105847;1277;107765;-72
2022/08/30 05:23:45;;;;;;;20.70;6.60;;;;;;;14.42;63.45;99339.89;105883;1277;97865;-71
2022/08/30 05:26:23;;;;;;;17.40;6.10;;;;;;;14.49;63.46;99338.59;106063;1276;97870;-69
2022/08/30 05:28:54;;;;;;;19.90;7.10;;;;;;;14.57;63.49;99343.47;105873;1276;111058;-70
2022/08/30 05:31:29;;;;;;;22.70;6.50;;;;;;;14.64;63.47;99343.92;105947;1276;95350;-70
2022/08/30 05:34:01;;;;;;;16.00;5.70;;;;;;;14.72;63.59;99343.99;105855;1275;107617;-69
2022/08/30 05:36:33;;;;;;;21.60;7.30;;;;;;;14.80;63.55;99343.18;105974;1277;97890;-71
2022/08/30 05:39:06;;;;;;;20.40;7.20;;;;;;;14.87;63.65;99346.08;105686;1276;96681;-72
2022/08/30 05:41:38;;;;;;;16.60;6.20;;;;;;;14.95;63.70;99346.90;105969;1275;111565;-73
2022/08/30 05:44:10;;;;;;;16.70;6.80;;;;;;;15.01;63.75;99350.41;105728;1276;95226;-73
2022/08/30 05:46:41;;;;;;;21.20;6.30;;;;;;;15.10;63.67;99348.66;105753;1275;107848;-70
2022/08/30 05:49:14;;;;;;;17.50;6.10;;;;;;;15.19;63.78;99349.64;105946;1275;97897;-69
2022/08/30 05:51:44;;;;;;;19.90;6.90;;;;;;;15.27;63.67;99350.19;105911;1276;97992;-70
2022/08/30 05:54:14;;;;;;;17.90;6.20;;;;;;;15.38;63.73;99350.48;105864;1276;111404;-71
2022/08/30 05:56:47;;;;;;;18.60;6.90;;;;;;;15.47;63.77;99351.98;105786;1276;97560;-70
2022/08/30 05:59:19;;;;;;;21.90;7.20;;;;;;;15.56;63.75;99353.72;105963;1275;107756;-72
2022/08/30 06:01:47;;;;;;;16.10;6.20;;;;;;;15.66;63.89;99351.74;105760;1275;97929;-74
2022/08/30 06:04:17;;;;;;;19.80;7.10;;;;;;;15.79;63.87;99354.17;105962;1276;97848;-72
2022/08/30 06:06:45;;;;;;;20.40;7.20;;;;;;;15.92;63.83;99351.98;105967;1275;111344;-71
2022/08/30 06:09:14;;;;;;;21.50;7.40;;;;;;;16.03;63.87;99353.98;106121;1274;97988;-71
2022/08/30 06:11:48;;;;;;;17.90;6.60;;;;;;;16.16;63.66;99353.42;105731;1276;109982;-71
2022/08/30 06:14:16;;;;;;;21.30;7.30;;;;;;;16.26;63.96;99361.45;105854;1275;97973;-70
2022/08/30 06:16:44;;;;;;;19.00;7.30;;;;;;;16.34;63.84;99360.29;106013;1275;96345;-70
2022/08/30 06:19:14;;;;;;;19.80;7.70;;;;;;;16.43;63.82;99359.02;105923;1274;111476;-72
2022/08/30 06:21:46;;;;;;;21.40;7.80;;;;;;;16.52;63.85;99360.33;105962;1274;97701;-69
2022/08/30 06:24:18;;;;;;;16.10;6.80;;;;;;;16.61;63.89;99362.33;106029;1276;107690;-70
2022/08/30 06:26:51;;;;;;;19.00;7.60;;;;;;;16.71;63.83;99361.60;105870;1275;95255;-71
2022/08/30 06:29:21;;;;;;;19.20;6.60;;;;;;;16.80;63.69;99365.23;106045;1275;97938;-72
2022/08/30 06:31:49;;;;;;;19.30;6.80;;;;;;;16.89;63.73;99366.95;105940;1276;111559;-72
2022/08/30 06:34:21;;;;;;;18.70;6.60;;;;;;;16.97;63.70;99370.08;106004;1276;97976;-72
2022/08/30 06:36:49;;;;;;;19.70;6.80;;;;;;;17.08;63.65;99373.21;105905;1276;107796;-70
2022/08/30 06:39:17;;;;;;;20.80;7.30;;;;;;;17.19;63.81;99370.95;105843;1276;97856;-73
2022/08/30 06:41:45;;;;;;;16.90;6.50;;;;;;;17.30;63.91;99377.07;105749;1276;97880;-73
2022/08/30 06:44:12;;;;;;;19.10;6.30;;;;;;;17.44;63.81;99378.52;105686;1276;111390;-72
2022/08/30 06:46:40;;;;;;;16.10;6.20;;;;;;;17.60;63.69;99373.23;105799;1276;97872;-72
2022/08/30 06:49:08;;;;;;;18.80;6.40;;;;;;;17.76;63.73;99375.16;105917;1276;107764;-75
2022/08/30 06:51:39;;;;;;;22.80;6.90;;;;;;;17.90;63.61;99371.42;105941;1276;97925;-73
2022/08/30 06:54:12;;;;;;;16.60;5.90;;;;;;;18.06;63.64;99370.10;105865;1276;97980;-74
2022/08/30 06:56:40;;;;;;;15.20;6.30;;;;;;;18.23;63.54;99363.01;105696;1276;111457;-73
2022/08/30 06:59:27;;;;;;;16.20;5.60;;;;;;;18.42;63.66;99364.88;105883;1276;97872;-72
2022/08/30 07:01:57;;;;;;;14.90;5.70;;;;;;;18.59;63.60;99365.16;105829;1276;107636;-74
2022/08/30 07:04:26;;;;;;;11.40;5.00;;;;;;;18.73;63.49;99360.83;105977;1276;97976;-70
2022/08/30 07:06:54;;;;;;;15.20;5.10;;;;;;;18.89;63.44;99362.30;106097;1276;98062;-70
2022/08/30 07:09:22;;;;;;;14.60;5.40;;;;;;;19.05;63.43;99369.17;105724;1276;113548;-72
2022/08/30 07:11:53;;;;;;;16.60;5.00;;;;;;;19.20;63.40;99362.21;105883;1276;95964;-75
2022/08/30 07:14:25;;;;;;;11.70;4.90;;;;;;;19.34;63.49;99367.95;106092;1275;107794;-72
2022/08/30 07:16:53;;;;;;;17.10;5.30;;;;;;;19.49;63.37;99367.41;105993;1276;97871;-71
2022/08/30 07:19:21;;;;;;;18.60;5.70;;;;;;;19.71;63.17;99370.05;105844;1276;95298;-72
2022/08/30 07:21:49;;;;;;;15.70;5.50;;;;;;;19.90;63.10;99365.14;106119;1276;109594;-73
2022/08/30 07:24:19;;;;;;;13.60;5.10;;;;;;;20.09;62.98;99369.23;106003;1274;95838;-73
2022/08/30 07:26:52;;;;;;;17.20;5.80;;;;;;;20.36;62.89;99364.00;105852;1276;107669;-74
2022/08/30 07:29:21;;;;;;;16.80;5.00;;;;;;;20.68;62.77;99371.13;106009;1276;96307;-74
2022/08/30 07:31:52;;;;;;;16.70;5.20;;;;;;;20.97;62.56;99371.59;105871;1276;97892;-73
2022/08/30 07:34:20;;;;;;;15.90;5.10;;;;;;;21.21;62.42;99370.01;105820;1276;110043;-73
2022/08/30 07:36:54;;;;;;;14.30;4.90;;;;;;;21.87;61.78;99364.48;105863;1273;95774;-73
2022/08/30 07:39:21;;;;;;;18.50;5.50;;;;;;;22.19;62.18;99364.65;105831;1274;107747;-71
2022/08/30 07:41:49;;;;;;;15.90;4.90;;;;;;;22.72;61.84;99361.32;105818;1275;98043;-74
2022/08/30 07:44:17;;;;;;;19.20;5.30;;;;;;;23.41;61.33;99357.11;105986;1276;98059;-71
2022/08/30 07:46:46;;;;;;;14.50;4.30;;;;;;;24.12;61.18;99356.77;105998;1276;111497;-70
2022/08/30 07:49:18;;;;;;;12.70;4.10;;;;;;;24.89;60.92;99360.23;105932;1274;97996;-73
2022/08/30 07:51:46;;;;;;;12.00;4.10;;;;;;;25.72;60.68;99355.04;105916;1275;107788;-75
2022/08/30 07:54:15;;;;;;;16.10;4.50;;;;;;;26.09;60.60;99355.95;105663;1276;97985;-73
2022/08/30 07:56:43;;;;;;;14.50;5.00;;;;;;;26.49;60.57;99350.11;105871;1276;97871;-73
2022/08/30 07:59:11;;;;;;;13.40;4.60;;;;;;;26.79;60.64;99354.94;105880;1274;111530;-71
2022/08/30 08:01:39;;;;;;;18.20;5.20;;;;;;;27.08;60.36;99352.30;105842;1276;97841;-74
2022/08/30 08:04:09;;;;;;;12.70;4.40;;;;;;;28.11;59.32;99349.99;105803;1276;107732;-71
2022/08/30 08:06:44;;;;;;;11.70;4.00;;;;;;;29.09;58.56;99355.81;105888;1275;97902;-71
2022/08/30 08:09:12;;;;;;;12.30;4.10;;;;;;;29.75;58.36;99349.88;105975;1276;97948;-71
2022/08/30 08:11:40;;;;;;;10.30;4.50;;;;;;;30.54;58.17;99351.09;105829;1275;111468;-70
2022/08/30 08:14:09;;;;;;;16.10;4.40;;;;;;;31.12;57.33;99350.49;105923;1276;98383;-72
2022/08/30 08:16:41;;;;;;;13.50;4.40;;;;;;;31.75;57.24;99353.23;105844;1274;107754;-72
2022/08/30 08:19:11;;;;;;;12.70;4.60;;;;;;;32.48;56.91;99350.34;105843;1274;97924;-72
2022/08/30 08:21:39;;;;;;;11.20;4.50;;;;;;;33.32;56.79;99350.18;105880;1275;95647;-71
2022/08/30 08:24:08;;;;;;;11.20;3.80;;;;;;;33.93;56.26;99350.89;105919;1276;110850;-70
2022/08/30 08:26:41;;;;;;;14.00;4.10;;;;;;;33.09;55.81;99351.90;105770;1276;97906;-70
2022/08/30 08:29:15;;;;;;;13.20;3.90;;;;;;;33.21;55.21;99345.74;105913;1275;107770;-73
2022/08/30 08:31:45;;;;;;;8.20;3.70;;;;;;;33.79;54.86;99343.48;106092;1274;97896;-70
2022/08/30 08:34:17;;;;;;;12.60;4.00;;;;;;;34.25;54.52;99345.98;106041;1274;97902;-74
2022/08/30 08:36:47;;;;;;;13.90;4.90;;;;;;;34.33;53.61;99342.36;105947;1275;111864;-72
2022/08/30 08:39:20;;;;;;;10.50;3.40;;;;;;;34.73;53.68;99341.98;105983;1276;98373;-72
2022/08/30 08:42:06;;;;;;;10.30;3.70;;;;;;;34.94;52.85;99341.56;105801;1276;108306;-74
2022/08/30 08:45:02;;;;;;;13.50;4.40;;;;;;;35.26;51.99;99332.36;105875;1274;97999;-74
2022/08/30 08:47:58;;;;;;;11.20;4.10;;;;;;;35.40;51.35;99334.15;105855;1275;99108;-73
2022/08/30 08:50:31;;;;;;;;;;;;;;;35.58;51.06;99334.58;105977;1274;112140;-73
2022/08/30 08:53:36;;;;;;;9.60;4.40;;;;;;;35.74;50.35;99330.91;105971;1276;98425;-77
2022/08/30 08:56:18;;;;;;;12.40;4.80;;;;;;;35.69;50.18;99331.48;105972;1276;107762;-73
2022/08/30 08:58:52;;;;;;;10.90;4.60;;;;;;;34.84;50.11;99336.35;106123;1274;97844;-72
2022/08/30 09:01:27;;;;;;;13.20;5.20;;;;;;;34.19;49.82;99343.00;105909;1276;97971;-70
2022/08/30 09:04:02;;;;;;;12.00;4.60;;;;;;;33.56;49.19;99338.53;105928;1276;111435;-67
2022/08/30 09:06:42;;;;;;;10.90;4.50;;;;;;;33.54;48.49;99338.13;105884;1277;98386;-70
2022/08/30 09:09:13;;;;;;;9.90;4.10;;;;;;;33.56;47.17;99336.02;106047;1276;107833;-70
2022/08/30 09:11:42;;;;;;;11.20;3.90;;;;;;;33.53;46.86;99336.53;105895;1276;97889;-74
2022/08/30 09:14:16;;;;;;;;;;;;;;;33.43;46.49;99336.99;105899;1275;97876;-71
2022/08/30 09:16:57;;;;;;;7.20;3.10;;;;;;;33.19;46.33;99340.14;105861;1276;111316;-71
2022/08/30 09:19:50;;;;;;;7.60;3.40;;;;;;;32.71;45.86;99339.70;105940;1276;96407;-71
2022/08/30 09:22:30;;;;;;;9.10;3.80;;;;;;;32.25;46.13;99339.70;105780;1276;106377;-71
2022/08/30 09:25:33;;;;;;;6.20;3.40;;;;;;;32.07;45.27;99342.13;105807;1276;97924;-68
2022/08/30 09:28:14;;;;;;;10.40;3.80;;;;;;;31.65;44.16;99347.39;105831;1276;97863;-71
2022/08/30 09:31:19;;;;;;;7.50;3.40;;;;;;;31.35;44.71;99350.91;106089;1276;111444;-73
2022/08/30 09:34:08;;;;;;;11.20;3.70;;;;;;;30.74;44.44;99350.00;106001;1276;95809;-72
2022/08/30 09:36:43;;;;;;;10.50;4.10;;;;;;;30.27;44.22;99351.63;105879;1276;107763;-72
2022/08/30 09:39:38;;;;;;;12.10;3.80;;;;;;;30.02;44.05;99352.38;105840;1276;98593;-72
2022/08/30 09:42:24;;;;;;;11.50;4.20;;;;;;;29.43;43.63;99351.15;105955;1276;95628;-75
2022/08/30 09:45:09;;;;;;;10.20;3.80;;;;;;;28.69;43.48;99356.29;105997;1276;111405;-71
2022/08/30 09:47:42;;;;;;;13.00;3.40;;;;;;;28.06;43.06;99351.84;106047;1276;98361;-72
2022/08/30 09:50:21;;;;;;;8.10;3.10;;;;;;;27.52;43.25;99349.27;105984;1276;107756;-69
2022/08/30 09:53:00;;;;;;;10.70;3.90;;;;;;;27.06;42.76;99350.51;105955;1276;96407;-71
2022/08/30 09:55:48;;;;;;;7.40;3.30;;;;;;;26.68;42.77;99348.60;106050;1276;97883;-72
2022/08/30 09:58:54;;;;;;;12.80;4.40;;;;;;;26.34;42.63;99348.50;105967;1276;111568;-76
2022/08/30 10:01:31;;;;;;;7.80;3.00;;;;;;;26.17;42.61;99346.95;105953;1276;98501;-72
2022/08/30 10:04:04;;;;;;;12.00;4.10;;;;;;;26.08;42.47;99343.88;105977;1276;106832;-71
2022/08/30 10:06:32;;;;;;;9.20;3.70;;;;;;;25.94;42.53;99344.02;106027;1276;98022;-76
2022/08/30 10:09:28;;;;;;;9.70;3.30;;;;;;;25.99;42.59;99340.61;106101;1276;97968;-70
2022/08/30 10:12:32;;;;;;;8.40;4.00;;;;;;;25.98;42.60;99339.35;106074;1276;111082;-74
2022/08/30 10:15:25;;;;;;;11.60;3.60;;;;;;;25.78;42.39;99346.62;105877;1276;98262;-71
2022/08/30 10:18:10;;;;;;;7.40;3.30;;;;;;;25.36;42.12;99346.59;105764;1276;107762;-69
2022/08/30 10:21:13;;;;;;;5.80;3.00;;;;;;;25.14;42.35;99340.36;105739;1276;98003;-70
2022/08/30 10:23:54;;;;;;;7.20;2.90;;;;;;;25.06;42.40;99336.29;105965;1276;97923;-69
2022/08/30 10:26:22;;;;;;;4.50;3.20;;;;;;;25.01;42.29;99335.42;105907;1276;112128;-71
2022/08/30 10:29:01;;;;;;;11.30;3.60;;;;;;;24.82;42.25;99340.48;105929;1276;97871;-69
2022/08/30 10:31:47;;;;;;;10.70;3.60;;;;;;;24.61;42.30;99341.88;105967;1276;107806;-68
2022/08/30 10:34:25;;;;;;;8.10;3.40;;;;;;;24.42;42.49;99345.33;105938;1276;97897;-70
2022/08/30 10:37:03;;;;;;;9.70;3.50;;;;;;;24.28;42.24;99349.71;105932;1276;96419;-69
2022/08/30 10:39:40;;;;;;;7.60;3.20;;;;;;;24.08;42.35;99347.04;105984;1276;111158;-71
2022/08/30 10:42:25;;;;;;;5.40;2.70;;;;;;;24.11;42.43;99337.70;105947;1276;98432;-70
2022/08/30 10:45:16;;;;;;;9.00;3.20;;;;;;;24.15;42.60;99330.31;105913;1276;107873;-69
2022/08/30 10:47:54;;;;;;;8.30;3.30;;;;;;;24.26;42.60;99322.55;105824;1276;97970;-70
2022/08/30 10:50:28;;;;;;;7.60;3.20;;;;;;;24.34;42.72;99320.48;105915;1276;97033;-72
2022/08/30 10:53:11;;;;;;;10.20;3.60;;;;;;;24.47;42.74;99325.95;105732;1276;111210;-69
2022/08/30 10:55:55;;;;;;;6.10;3.40;;;;;;;24.55;42.71;99330.17;105931;1276;97667;-67
2022/08/30 10:58:23;;;;;;;7.30;3.30;;;;;;;24.57;42.72;99327.91;105878;1276;107481;-69
2022/08/30 11:01:14;;;;;;;7.90;3.30;;;;;;;24.48;42.63;99325.76;105724;1276;98067;-68
2022/08/30 11:03:48;;;;;;;7.60;3.70;;;;;;;24.32;42.67;99321.30;105913;1276;98049;-68
2022/08/30 11:06:36;;;;;;;10.50;3.80;;;;;;;24.23;42.81;99312.62;105900;1276;112317;-68
2022/08/30 11:09:26;;;;;;;10.10;3.50;;;;;;;24.29;43.09;99312.03;106083;1276;97952;-68
2022/08/30 11:12:37;;;;;;;9.00;3.40;;;;;;;24.38;43.05;99314.68;106003;1276;107769;-68
2022/08/30 11:15:16;;;;;;;4.50;3.50;;;;;;;24.44;43.14;99310.64;105787;1276;98052;-69
2022/08/30 11:17:54;;;;;;;12.50;3.80;;;;;;;24.54;43.28;99307.36;106037;1275;97860;-68
2022/08/30 11:20:31;;;;;;;7.00;3.00;;;;;;;24.75;43.43;99300.09;105912;1276;112478;-67
2022/08/30 11:23:24;;;;;;;10.30;3.50;;;;;;;24.96;43.36;99296.54;105946;1276;100525;-67
2022/08/30 11:26:11;;;;;;;8.60;4.30;;;;;;;25.12;43.39;99298.35;105883;1276;108361;-68
2022/08/30 11:29:02;;;;;;;10.20;3.50;;;;;;;25.20;43.26;99302.98;106053;1276;98691;-68
2022/08/30 11:31:39;;;;;;;10.40;3.90;;;;;;;25.17;43.23;99302.44;106093;1276;97774;-70
2022/08/30 11:34:09;;;;;;;8.20;3.60;;;;;;;25.09;43.21;99303.81;106030;1276;112124;-69
2022/08/30 11:36:37;;;;;;;5.00;3.40;;;;;;;25.07;43.19;99301.80;105958;1276;97887;-67
2022/08/30 11:39:40;;;;;;;5.30;2.80;;;;;;;24.98;43.07;99302.95;106014;1274;108581;-69
2022/08/30 11:42:40;;;;;;;6.60;3.10;;;;;;;24.78;43.15;99305.32;105915;1276;97734;-68
2022/08/30 11:45:22;;;;;;;7.60;3.30;;;;;;;24.72;43.19;99297.17;106020;1274;97857;-69
2022/08/30 11:47:57;;;;;;;9.30;3.40;;;;;;;24.65;43.17;99293.10;106064;1276;111979;-70
2022/08/30 11:51:00;;;;;;;5.70;3.20;;;;;;;24.65;43.39;99293.55;106036;1275;97904;-69
2022/08/30 11:54:13;;;;;;;9.70;3.40;;;;;;;24.74;43.34;99288.65;106153;1275;107539;-68